Eoline, Alabama
Current Conditions -  °F | °C
As of 1:53 PM on Wednesday 28 Jan 2015 (Local Time) from KEET Reporting Station
Clear Clear  
Wind Chill: 13°   Ceiling: Unl
Heat Index: 13°   Visibility: 10mi
Dew Point: -3°   Wind: 3mph
Humidity: 33%   Direction: 40°NE
Pressure: 30.24"   Gusts: NA
Location:  32.9085°N, 87.0467°W
Report Text: KEET 281953Z AUTO 04003KT 10SM CLR 13/M03 A3024 RMK AO2 SLP240 T01331028
Loading
Personal Weather Stations






























Interactive Weather Map New forecast layout! Learn more

10-Day Weather Forecast

Advertisements
Track Severe Weather on mobile